Time;durP1;ratioP1;P1;durP2;ratioP2;P2;SDS_P1;SDS_P2;PMS_P1;PMS_P2;Temp;Humidity;BMP_temperature;BMP_pressure;BME280_temperature;BME280_humidity;BME280_pressure;Samples;Min_cycle;Max_cycle;Signal;HPM_P1;HPM_P2
2022/09/02 00:00:29;;;;;;;4.63;4.22;;;;;;;22.68;100.00;99826.34;4975230;28;20193;-75
2022/09/02 00:02:55;;;;;;;6.85;4.40;;;;;;;22.45;100.00;99820.16;4992380;28;20255;-75
2022/09/02 00:05:22;;;;;;;5.43;4.28;;;;;;;22.47;100.00;99824.47;4992803;28;20590;-75
2022/09/02 00:07:51;;;;;;;7.78;4.90;;;;;;;22.55;100.00;99826.81;4993329;28;20221;-76
2022/09/02 00:10:17;;;;;;;5.18;4.65;;;;;;;22.49;100.00;99833.19;4993297;28;20677;-75
2022/09/02 00:12:44;;;;;;;6.85;4.70;;;;;;;22.52;100.00;99833.06;4992745;28;20193;-75
2022/09/02 00:15:11;;;;;;;5.00;4.60;;;;;;;22.44;100.00;99819.28;4992918;28;20209;-76
2022/09/02 00:17:38;;;;;;;6.72;4.50;;;;;;;22.42;100.00;99820.25;4992433;28;20197;-75
2022/09/02 00:20:05;;;;;;;8.40;4.78;;;;;;;22.39;100.00;99804.53;4992909;28;20209;-75
2022/09/02 00:22:32;;;;;;;5.50;5.00;;;;;;;22.46;100.00;99827.16;4992810;28;20213;-75
2022/09/02 00:25:00;;;;;;;5.57;5.03;;;;;;;22.50;100.00;99802.34;4992688;28;20201;-76
2022/09/02 00:27:27;;;;;;;7.47;4.78;;;;;;;22.52;100.00;99816.34;4973897;28;20210;-75
2022/09/02 00:29:54;;;;;;;5.85;5.25;;;;;;;22.50;100.00;99808.50;4939707;28;20229;-75
2022/09/02 00:32:21;;;;;;;9.93;5.43;;;;;;;22.58;100.00;99810.84;4992054;28;20201;-75
2022/09/02 00:34:48;;;;;;;5.28;4.72;;;;;;;22.69;100.00;99808.66;4992996;28;20230;-75
2022/09/02 00:37:16;;;;;;;7.15;5.43;;;;;;;22.68;100.00;99805.19;4992946;28;20202;-75
2022/09/02 00:39:42;;;;;;;8.20;5.65;;;;;;;22.86;100.00;99806.25;4993524;28;20209;-75
2022/09/02 00:42:11;;;;;;;7.97;6.18;;;;;;;22.84;100.00;99794.00;4992544;28;20577;-75
2022/09/02 00:44:38;;;;;;;6.57;5.57;;;;;;;22.75;100.00;99787.31;4992923;28;20210;-74
2022/09/02 00:47:05;;;;;;;9.05;6.25;;;;;;;22.87;100.00;99813.25;4992824;28;20200;-75
2022/09/02 00:49:35;;;;;;;7.50;5.53;;;;;;;22.70;100.00;99778.69;4957185;28;20205;-75
2022/09/02 00:52:05;;;;;;;7.30;5.97;;;;;;;22.90;100.00;99796.41;4992363;28;20220;-75
2022/09/02 00:54:36;;;;;;;6.75;5.60;;;;;;;22.91;100.00;99809.56;4992728;28;20225;-75
2022/09/02 00:57:09;;;;;;;13.23;6.50;;;;;;;23.06;100.00;99816.88;4992025;28;20573;-75
2022/09/02 00:59:46;;;;;;;8.25;5.97;;;;;;;23.13;100.00;99820.13;4992438;28;20560;-75
2022/09/02 01:02:13;;;;;;;14.88;6.30;;;;;;;23.08;100.00;99817.66;4992401;28;20213;-75
2022/09/02 01:04:41;;;;;;;8.45;5.80;;;;;;;23.08;100.00;99817.66;4992361;28;20201;-75
2022/09/02 01:07:09;;;;;;;7.97;5.97;;;;;;;22.87;100.00;99809.72;4992135;28;20260;-75
2022/09/02 01:09:36;;;;;;;8.65;6.10;;;;;;;22.91;100.00;99814.84;4992857;28;20668;-72
2022/09/02 01:12:04;;;;;;;8.93;6.50;;;;;;;23.03;100.00;99822.31;4992326;28;20264;-73
2022/09/02 01:14:31;;;;;;;8.13;6.30;;;;;;;22.90;100.00;99805.19;4992179;28;20228;-75
2022/09/02 01:17:01;;;;;;;8.40;6.22;;;;;;;23.13;100.00;99826.28;4991980;28;20197;-75
2022/09/02 01:19:32;;;;;;;7.55;5.57;;;;;;;22.60;100.00;99753.50;4992160;28;20194;-75
2022/09/02 01:22:00;;;;;;;6.50;5.90;;;;;;;22.91;100.00;99817.50;4992204;28;20582;-74
2022/09/02 01:24:29;;;;;;;8.15;6.00;;;;;;;22.79;100.00;99820.63;4974098;28;20198;-75
2022/09/02 01:26:58;;;;;;;7.70;6.88;;;;;;;22.60;100.00;99816.94;4991574;28;20205;-75
2022/09/02 01:29:27;;;;;;;9.70;6.43;;;;;;;22.38;100.00;99800.16;4990467;28;20198;-75
2022/09/02 01:31:54;;;;;;;12.05;7.25;;;;;;;22.37;100.00;99819.56;4992106;28;20233;-76
2022/09/02 01:34:21;;;;;;;9.90;7.22;;;;;;;22.12;100.00;99783.50;4973883;28;20234;-75
2022/09/02 01:36:48;;;;;;;11.75;7.80;;;;;;;22.19;100.00;99814.03;4972412;28;20194;-76
2022/09/02 01:39:16;;;;;;;8.80;6.97;;;;;;;22.16;100.00;99818.56;4992370;28;20212;-75
2022/09/02 01:41:44;;;;;;;8.05;7.10;;;;;;;22.13;100.00;99806.34;4991970;28;20205;-75
2022/09/02 01:44:11;;;;;;;15.10;7.22;;;;;;;22.08;100.00;99804.81;4991742;28;20210;-75
2022/09/02 01:46:38;;;;;;;13.07;7.70;;;;;;;22.15;100.00;99816.88;4991505;28;20684;-75
2022/09/02 01:49:05;;;;;;;11.02;6.53;;;;;;;21.92;100.00;99799.22;4992043;28;20556;-75
2022/09/02 01:51:32;;;;;;;12.38;7.57;;;;;;;22.01;100.00;99821.78;4991714;28;20203;-75
2022/09/02 01:53:59;;;;;;;9.82;7.47;;;;;;;21.93;100.00;99803.59;4991546;28;20324;-75
2022/09/02 01:56:27;;;;;;;9.70;6.80;;;;;;;21.90;100.00;99806.34;4991447;28;20276;-75
2022/09/02 01:58:54;;;;;;;8.63;7.30;;;;;;;21.86;100.00;99809.97;4991613;28;20623;-75
2022/09/02 02:01:21;;;;;;;9.43;7.00;;;;;;;21.83;100.00;99814.50;4955282;28;20213;-75
2022/09/02 02:03:48;;;;;;;9.57;6.28;;;;;;;21.80;100.00;99802.22;4988481;28;20213;-75
2022/09/02 02:06:16;;;;;;;12.73;7.22;;;;;;;21.97;100.00;99818.41;4991364;28;20268;-75
2022/09/02 02:08:44;;;;;;;11.93;5.93;;;;;;;21.76;100.00;99824.38;4991339;28;20241;-75
2022/09/02 02:11:11;;;;;;;11.48;7.70;;;;;;;21.84;100.00;99822.34;4990836;28;20205;-75
2022/09/02 02:13:40;;;;;;;10.80;8.20;;;;;;;22.03;100.00;99825.22;4989630;28;20228;-75
2022/09/02 02:16:07;;;;;;;11.68;7.50;;;;;;;22.00;100.00;99822.69;4953770;28;20211;-75
2022/09/02 02:18:34;;;;;;;10.73;7.20;;;;;;;21.83;100.00;99804.75;4990337;28;20682;-75
2022/09/02 02:21:00;;;;;;;10.38;8.02;;;;;;;21.85;100.00;99807.38;4955973;28;20674;-75
2022/09/02 02:23:27;;;;;;;12.70;8.98;;;;;;;21.81;100.00;99790.78;4990206;28;20200;-75
2022/09/02 02:25:54;;;;;;;11.05;7.43;;;;;;;21.79;100.00;99792.63;4990745;28;20554;-75
2022/09/02 02:28:21;;;;;;;11.80;8.75;;;;;;;21.87;100.00;99811.66;4991249;28;20789;-75
2022/09/02 02:30:49;;;;;;;12.30;8.95;;;;;;;21.92;100.00;99788.66;4991146;28;20205;-77
2022/09/02 02:33:16;;;;;;;10.85;8.93;;;;;;;22.11;100.00;99813.50;4989543;28;20554;-76
2022/09/02 02:35:43;;;;;;;10.88;7.60;;;;;;;22.05;100.00;99811.03;4990680;28;20205;-76
2022/09/02 02:38:10;;;;;;;14.10;9.35;;;;;;;22.08;100.00;99816.22;4990159;28;20205;-76
2022/09/02 02:40:37;;;;;;;15.20;8.95;;;;;;;22.18;100.00;99817.63;4972765;28;20197;-76
2022/09/02 02:43:04;;;;;;;12.73;8.38;;;;;;;21.88;100.00;99792.28;4972770;28;20205;-76
2022/09/02 02:45:31;;;;;;;12.00;9.15;;;;;;;21.95;100.00;99809.66;4991085;28;20209;-76
2022/09/02 02:47:59;;;;;;;14.73;9.73;;;;;;;22.08;100.00;99815.38;4990647;28;20205;-76
2022/09/02 02:50:26;;;;;;;16.23;9.77;;;;;;;21.91;100.00;99784.28;4990890;28;20205;-76
2022/09/02 02:52:55;;;;;;;15.45;9.52;;;;;;;21.88;100.00;99791.41;4990665;28;20206;-76
2022/09/02 02:55:23;;;;;;;12.63;9.50;;;;;;;21.99;100.00;99827.13;4991124;28;20221;-75
2022/09/02 02:57:50;;;;;;;13.52;8.35;;;;;;;21.43;100.00;99742.00;4990822;28;20205;-75
2022/09/02 03:00:21;;;;;;;17.42;10.77;;;;;;;22.01;100.00;99825.28;4989165;28;20213;-76
2022/09/02 03:02:48;;;;;;;12.57;10.48;;;;;;;21.98;100.00;99835.06;4989121;28;20221;-76
2022/09/02 03:05:16;;;;;;;12.65;8.50;;;;;;;21.97;100.00;99833.38;4971788;28;20204;-76
2022/09/02 03:07:43;;;;;;;10.50;9.20;;;;;;;21.88;100.00;99834.50;4990162;28;20225;-75
2022/09/02 03:10:11;;;;;;;12.98;9.27;;;;;;;21.96;100.00;99836.94;4990046;28;20198;-75
2022/09/02 03:12:39;;;;;;;12.45;9.40;;;;;;;21.93;100.00;99837.91;4972090;28;20202;-75
2022/09/02 03:15:07;;;;;;;12.55;8.35;;;;;;;21.90;100.00;99830.09;4990690;28;20225;-75
2022/09/02 03:17:33;;;;;;;13.98;9.02;;;;;;;21.83;100.00;99831.16;4972186;28;20591;-75
2022/09/02 03:20:01;;;;;;;10.77;8.80;;;;;;;21.77;100.00;99826.09;4990871;28;20229;-75
2022/09/02 03:22:29;;;;;;;14.85;9.68;;;;;;;21.93;100.00;99831.75;4991185;28;20682;-75
2022/09/02 03:24:55;;;;;;;14.27;9.27;;;;;;;21.88;100.00;99838.94;4993984;28;20590;-76
2022/09/02 03:27:22;;;;;;;10.75;8.10;;;;;;;21.72;100.00;99833.34;4994395;28;20205;-76
2022/09/02 03:29:49;;;;;;;13.45;9.60;;;;;;;21.80;100.00;99831.28;4960012;28;20559;-77
2022/09/02 03:32:16;;;;;;;10.60;9.35;;;;;;;21.67;100.00;99819.44;4993600;28;20599;-76
2022/09/02 03:34:43;;;;;;;10.90;8.18;;;;;;;21.55;100.00;99814.56;4994497;28;20237;-75
2022/09/02 03:37:10;;;;;;;13.00;9.20;;;;;;;21.62;100.00;99826.63;4994194;28;20209;-75
2022/09/02 03:39:38;;;;;;;14.38;9.80;;;;;;;21.64;100.00;99822.19;4994134;28;20205;-75
2022/09/02 03:42:06;;;;;;;19.52;9.63;;;;;;;21.46;100.00;99814.88;4994043;28;20344;-75
2022/09/02 03:44:33;;;;;;;13.30;9.05;;;;;;;21.49;100.00;99841.16;4957523;28;20221;-75
2022/09/02 03:46:59;;;;;;;13.85;9.07;;;;;;;21.57;100.00;99832.06;4993574;28;20213;-75
2022/09/02 03:49:26;;;;;;;19.35;10.00;;;;;;;21.55;100.00;99841.81;4990918;28;20194;-75
2022/09/02 03:51:53;;;;;;;12.25;8.88;;;;;;;21.31;100.00;99821.53;4993175;28;20594;-75
2022/09/02 03:54:20;;;;;;;11.48;7.97;;;;;;;21.25;100.00;99835.78;4992980;28;20229;-76
2022/09/02 03:56:48;;;;;;;15.13;9.60;;;;;;;21.50;100.00;99853.44;4994175;28;20297;-75
2022/09/02 03:59:15;;;;;;;14.63;8.80;;;;;;;21.11;100.00;99813.41;4993587;28;20210;-75
2022/09/02 04:01:42;;;;;;;17.77;9.07;;;;;;;21.43;100.00;99862.47;4994003;28;20209;-76
2022/09/02 04:04:09;;;;;;;12.63;8.25;;;;;;;21.34;100.00;99857.47;4993285;28;20236;-75
2022/09/02 04:06:36;;;;;;;15.57;7.72;;;;;;;21.27;100.00;99873.50;4993431;28;20244;-75
2022/09/02 04:09:05;;;;;;;10.55;8.23;;;;;;;21.32;100.00;99867.22;4958893;28;20226;-75
2022/09/02 04:11:31;;;;;;;10.27;8.10;;;;;;;21.27;100.00;99878.78;4993332;28;20206;-75
2022/09/02 04:14:00;;;;;;;16.08;9.18;;;;;;;21.43;100.00;99899.41;4991252;28;20197;-76
2022/09/02 04:16:27;;;;;;;12.25;8.13;;;;;;;21.25;100.00;99900.84;4993745;28;20198;-75
2022/09/02 04:18:54;;;;;;;9.32;6.05;;;;;;;21.08;100.00;99882.84;4993194;28;20220;-75
2022/09/02 04:21:21;;;;;;;15.23;8.23;;;;;;;21.41;100.00;99904.72;4993066;28;20259;-75
2022/09/02 04:23:48;;;;;;;9.10;6.00;;;;;;;21.03;100.00;99899.75;4993345;28;20201;-75
2022/09/02 04:26:17;;;;;;;32.00;8.52;;;;;;;21.16;100.00;99917.81;4974744;28;20212;-76
2022/09/02 04:28:43;;;;;;;7.25;5.93;;;;;;;20.98;100.00;99910.41;4975095;28;20299;-76
2022/09/02 04:31:14;;;;;;;8.63;7.60;;;;;;;21.16;100.00;99928.34;4992664;28;20276;-76
2022/09/02 04:33:41;;;;;;;12.75;6.90;;;;;;;21.12;100.00;99937.25;4993033;28;20201;-75
2022/09/02 04:36:11;;;;;;;8.32;6.40;;;;;;;21.39;100.00;99934.69;4988310;28;20221;-78
2022/09/02 04:38:38;;;;;;;9.95;6.47;;;;;;;21.41;100.00;99940.78;4993223;28;20205;-77
2022/09/02 04:41:07;;;;;;;10.45;7.25;;;;;;;21.47;100.00;99943.25;4992669;28;20658;-75
2022/09/02 04:43:34;;;;;;;10.93;6.57;;;;;;;21.24;100.00;99936.91;4993051;28;20198;-76
2022/09/02 04:46:04;;;;;;;8.45;7.07;;;;;;;21.16;100.00;99904.63;4992680;28;20604;-76
2022/09/02 04:48:35;;;;;;;15.80;6.40;;;;;;;21.30;100.00;99940.28;4992737;28;20732;-75
2022/09/02 04:51:05;;;;;;;14.52;6.30;;;;;;;21.43;100.00;99946.88;4982462;28;20206;-75
2022/09/02 04:53:32;;;;;;;9.35;6.45;;;;;;;21.49;100.00;99958.09;4993373;28;20292;-75
2022/09/02 04:55:59;;;;;;;7.25;6.57;;;;;;;21.54;100.00;99937.72;4992849;28;20311;-76
2022/09/02 04:58:27;;;;;;;8.75;6.03;;;;;;;21.39;100.00;99943.47;4993114;28;20256;-75
2022/09/02 05:00:54;;;;;;;12.18;6.78;;;;;;;21.24;100.00;99950.09;4992336;28;20202;-76
2022/09/02 05:03:22;;;;;;;10.30;5.90;;;;;;;20.89;100.00;99868.53;4992437;28;20757;-75
2022/09/02 05:06:00;;;;;;;15.25;6.30;;;;;;;21.66;100.00;99957.56;4991925;28;20197;-76
2022/09/02 05:08:26;;;;;;;6.32;5.72;;;;;;;21.55;100.00;99964.94;4973460;28;20735;-76
2022/09/02 05:10:53;;;;;;;10.90;4.93;;;;;;;21.54;100.00;99971.16;4991411;28;20740;-75
2022/09/02 05:13:20;;;;;;;6.07;4.43;;;;;;;21.43;100.00;99973.25;4993087;28;20197;-76
2022/09/02 05:15:47;;;;;;;12.55;5.97;;;;;;;21.45;100.00;99976.72;4992677;28;20237;-76
2022/09/02 05:18:14;;;;;;;10.10;4.82;;;;;;;21.50;100.00;99974.81;4990870;28;20271;-76
2022/09/02 05:20:42;;;;;;;6.57;3.83;;;;;;;21.29;100.00;99972.81;4992377;28;20213;-76
2022/09/02 05:23:11;;;;;;;10.43;5.20;;;;;;;21.55;100.00;99962.31;4992078;28;20646;-76
2022/09/02 05:25:39;;;;;;;6.35;3.75;;;;;;;21.37;100.00;99968.19;4992687;28;20193;-77
2022/09/02 05:28:07;;;;;;;12.02;5.78;;;;;;;21.57;100.00;99969.28;4992385;28;20220;-77
2022/09/02 05:30:34;;;;;;;11.10;4.70;;;;;;;21.62;100.00;99961.19;4992117;28;20261;-77
2022/09/02 05:33:01;;;;;;;7.90;5.63;;;;;;;21.34;100.00;99908.47;4991464;28;20598;-75
2022/09/02 05:35:28;;;;;;;26.02;5.88;;;;;;;21.73;100.00;99981.06;4992282;28;20225;-74
2022/09/02 05:37:55;;;;;;;7.20;5.82;;;;;;;21.58;100.00;99972.78;4992362;28;20228;-76
2022/09/02 05:40:23;;;;;;;5.80;5.10;;;;;;;21.84;100.00;99975.44;4992262;28;20202;-76
2022/09/02 05:42:50;;;;;;;7.85;3.67;;;;;;;21.85;100.00;99976.31;4991881;28;20206;-76
2022/09/02 05:45:17;;;;;;;9.70;5.75;;;;;;;21.86;100.00;99971.00;4991201;28;20198;-76
2022/09/02 05:47:44;;;;;;;17.92;6.28;;;;;;;22.13;100.00;99975.38;4992084;28;20563;-80
2022/09/02 05:50:11;;;;;;;6.38;4.75;;;;;;;22.12;100.00;99976.28;4990803;28;20213;-80
2022/09/02 05:52:38;;;;;;;7.68;4.20;;;;;;;22.24;100.00;99981.16;4991945;28;20204;-82
2022/09/02 05:55:05;;;;;;;4.22;3.80;;;;;;;22.17;100.00;99977.00;4991629;28;20728;-81
2022/09/02 05:57:33;;;;;;;7.78;4.65;;;;;;;22.38;100.00;99974.53;4991701;28;20214;-80
2022/09/02 06:00:00;;;;;;;7.30;5.10;;;;;;;22.10;100.00;99959.66;4991540;28;20213;-80
2022/09/02 06:02:27;;;;;;;12.95;5.57;;;;;;;22.43;100.00;99976.13;4992100;28;20205;-84
2022/09/02 06:04:55;;;;;;;12.10;4.85;;;;;;;22.45;100.00;99989.25;4991821;28;20205;-78
2022/09/02 06:07:25;;;;;;;9.73;4.93;;;;;;;22.53;100.00;99988.09;4989443;28;20232;-80
2022/09/02 06:09:52;;;;;;;6.65;4.25;;;;;;;22.23;100.00;99957.44;4991509;28;20201;-75
2022/09/02 06:12:20;;;;;;;16.10;4.40;;;;;;;22.60;100.00;99981.66;4973432;28;20206;-81
2022/09/02 06:14:48;;;;;;;7.72;4.10;;;;;;;22.56;100.00;99987.97;4991782;28;20693;-83
2022/09/02 06:17:15;;;;;;;6.90;3.95;;;;;;;22.45;100.00;99966.34;4989262;28;20202;-81
2022/09/02 06:19:42;;;;;;;7.05;4.40;;;;;;;22.59;100.00;99987.00;4991903;28;20253;-81
2022/09/02 06:22:09;;;;;;;7.90;4.85;;;;;;;22.74;100.00;99997.06;4991581;28;20245;-82
2022/09/02 06:24:36;;;;;;;6.38;3.03;;;;;;;22.62;100.00;99992.16;4973272;28;20209;-80
2022/09/02 06:27:03;;;;;;;7.32;5.18;;;;;;;22.63;100.00;99994.75;4991313;28;20213;-80
2022/09/02 06:29:30;;;;;;;7.82;5.38;;;;;;;22.79;100.00;100003.06;4991578;28;20216;-81
2022/09/02 06:31:58;;;;;;;3.67;3.17;;;;;;;22.66;100.00;99993.78;4989238;28;20197;-81
2022/09/02 06:34:26;;;;;;;7.43;4.68;;;;;;;22.73;100.00;99984.75;4991499;28;20677;-82
2022/09/02 06:36:53;;;;;;;7.22;4.85;;;;;;;22.70;100.00;99974.28;4973013;28;20776;-79
2022/09/02 06:39:22;;;;;;;5.45;4.95;;;;;;;23.03;100.00;100012.72;4973034;28;20625;-80
2022/09/02 06:41:49;;;;;;;11.95;4.13;;;;;;;22.79;100.00;100002.19;4991496;28;20216;-79
2022/09/02 06:44:17;;;;;;;8.95;4.38;;;;;;;22.79;100.00;99991.63;4991416;28;20215;-82
2022/09/02 06:46:47;;;;;;;8.32;4.78;;;;;;;22.86;100.00;100011.63;4991452;28;20201;-81
2022/09/02 06:49:16;;;;;;;4.35;3.40;;;;;;;22.97;100.00;100015.56;4991272;28;20688;-81
2022/09/02 06:51:45;;;;;;;6.22;3.53;;;;;;;22.88;100.00;100012.41;4991234;28;20208;-80
2022/09/02 06:54:14;;;;;;;6.80;4.28;;;;;;;22.75;100.00;100019.06;4991451;28;20217;-82
2022/09/02 06:56:41;;;;;;;8.20;5.40;;;;;;;22.44;100.00;99929.41;4992792;28;20252;-82
2022/09/02 06:59:08;;;;;;;5.47;4.70;;;;;;;23.00;100.00;99996.97;4995275;28;20201;-83
2022/09/02 07:01:35;;;;;;;6.50;4.18;;;;;;;22.85;100.00;100009.88;4995355;28;20197;-81
2022/09/02 07:06:51;;;;;;;6.05;3.90;;;;;;;22.72;100.00;99977.75;4995031;28;20288;-81
2022/09/02 07:09:20;;;;;;;7.20;5.20;;;;;;;23.04;100.00;100009.19;4992903;28;20194;-82
2022/09/02 07:11:48;;;;;;;6.35;4.50;;;;;;;23.13;100.00;100019.41;4995177;28;20678;-81
2022/09/02 07:14:16;;;;;;;9.63;4.88;;;;;;;23.03;100.00;100002.16;4994878;28;20212;-81
2022/09/02 07:16:50;;;;;;;7.28;5.53;;;;;;;23.10;100.00;100014.22;4960362;28;20721;-81
2022/09/02 07:19:18;;;;;;;5.07;4.10;;;;;;;23.04;100.00;100017.09;4994896;28;20208;-80
2022/09/02 07:21:45;;;;;;;8.10;5.72;;;;;;;23.00;100.00;99994.34;4995117;28;20595;-82
2022/09/02 07:24:14;;;;;;;6.55;5.05;;;;;;;23.39;100.00;100026.38;4994548;28;20212;-81
2022/09/02 07:26:42;;;;;;;5.78;4.70;;;;;;;23.27;100.00;100020.66;4994726;28;20208;-82
2022/09/02 07:29:09;;;;;;;9.98;4.20;;;;;;;23.02;100.00;100013.66;4994325;28;20198;-81
2022/09/02 07:31:36;;;;;;;6.40;4.60;;;;;;;23.01;100.00;100019.00;4994630;28;20201;-81
2022/09/02 07:34:05;;;;;;;5.55;3.80;;;;;;;22.98;100.00;100013.81;4976451;28;20201;-81
2022/09/02 07:36:33;;;;;;;8.75;4.93;;;;;;;22.92;100.00;100017.56;4994781;28;20241;-80
2022/09/02 07:39:00;;;;;;;6.15;4.32;;;;;;;23.04;100.00;100017.09;4994584;28;20208;-80
2022/09/02 07:41:29;;;;;;;6.82;3.05;;;;;;;22.95;100.00;100005.97;4994575;28;20201;-81
2022/09/02 07:43:55;;;;;;;10.30;5.03;;;;;;;23.02;100.00;100013.66;4994552;28;20205;-83
2022/09/02 07:46:23;;;;;;;5.78;4.20;;;;;;;22.87;100.00;100022.13;4992263;28;20202;-83
2022/09/02 07:48:50;;;;;;;7.85;4.47;;;;;;;22.83;100.00;99998.53;4994669;28;20198;-83
2022/09/02 07:51:17;;;;;;;7.28;4.70;;;;;;;23.05;100.00;100017.94;4994368;28;20256;-81
2022/09/02 07:53:45;;;;;;;5.57;5.00;;;;;;;22.99;100.00;100019.06;4994326;28;20637;-81
2022/09/02 07:56:13;;;;;;;6.57;4.55;;;;;;;22.82;100.00;100000.28;4994153;28;20237;-82
2022/09/02 07:58:41;;;;;;;5.68;3.47;;;;;;;22.98;100.00;100014.66;4994408;28;20319;-82
2022/09/02 08:01:08;;;;;;;10.48;4.78;;;;;;;23.01;100.00;99989.91;4994245;28;20260;-81
2022/09/02 08:03:35;;;;;;;7.25;4.20;;;;;;;22.94;100.00;100005.13;4994357;28;20220;-80
2022/09/02 08:06:02;;;;;;;5.40;3.90;;;;;;;23.04;100.00;100006.53;4994146;28;20206;-82
2022/09/02 08:08:29;;;;;;;7.38;4.85;;;;;;;23.00;100.00;100017.28;4993295;28;20233;-81
2022/09/02 08:10:56;;;;;;;10.73;4.43;;;;;;;23.17;100.00;100013.06;4994066;28;20209;-82
2022/09/02 08:13:23;;;;;;;10.00;4.78;;;;;;;23.37;100.00;100016.72;4975369;28;20580;-81
2022/09/02 08:15:52;;;;;;;9.00;4.57;;;;;;;23.31;100.00;100011.69;4991688;28;20217;-82
2022/09/02 08:18:20;;;;;;;8.25;4.10;;;;;;;23.31;100.00;100019.63;4991597;28;20205;-80
2022/09/02 08:20:47;;;;;;;12.68;5.55;;;;;;;23.52;100.00;100021.47;4994067;28;20249;-79
2022/09/02 08:23:14;;;;;;;6.93;4.88;;;;;;;23.41;100.00;99994.53;4993658;28;20229;-82
2022/09/02 08:25:42;;;;;;;4.88;4.47;;;;;;;23.53;100.00;100017.91;4993626;28;20202;-79
2022/09/02 08:28:09;;;;;;;9.48;4.75;;;;;;;23.44;100.00;99997.94;4993730;28;20201;-78
2022/09/02 08:30:36;;;;;;;10.95;5.30;;;;;;;23.79;100.00;100017.78;4993693;28;20225;-79
2022/09/02 08:33:04;;;;;;;5.90;4.53;;;;;;;23.73;100.00;99998.59;4993438;28;20206;-79
2022/09/02 08:35:31;;;;;;;3.83;3.45;;;;;;;23.77;100.00;100016.94;4993448;28;20245;-81
2022/09/02 08:37:58;;;;;;;7.28;4.90;;;;;;;23.69;100.00;100014.59;4993332;28;20665;-80
2022/09/02 08:40:33;;;;;;;7.60;4.15;;;;;;;23.81;100.00;100009.75;4993375;28;20217;-80
2022/09/02 08:43:04;;;;;;;6.32;4.88;;;;;;;23.90;100.00;100020.81;4975728;28;20207;-81
2022/09/02 08:45:36;;;;;;;10.70;4.97;;;;;;;24.16;100.00;100007.41;4993434;28;20197;-82
2022/09/02 08:48:09;;;;;;;7.28;5.30;;;;;;;24.30;100.00;99998.00;4993040;28;20206;-80
2022/09/02 08:50:39;;;;;;;7.55;3.88;;;;;;;24.39;100.00;100022.34;4992734;28;20202;-82
2022/09/02 08:53:15;;;;;;;4.88;4.40;;;;;;;24.42;100.00;100018.69;4993119;28;20208;-78
2022/09/02 08:55:46;;;;;;;5.30;4.85;;;;;;;24.35;100.00;99986.31;4993108;28;20225;-82
2022/09/02 08:58:18;;;;;;;6.78;4.88;;;;;;;24.46;100.00;100007.91;4993160;28;20205;-81
2022/09/02 09:00:54;;;;;;;9.65;4.03;;;;;;;24.30;100.00;99998.00;4993058;28;20201;-81
2022/09/02 09:03:27;;;;;;;10.10;5.10;;;;;;;24.54;100.00;99986.38;4974027;28;20208;-83
2022/09/02 09:06:02;;;;;;;4.43;4.03;;;;;;;24.33;100.00;99984.66;4992867;28;20209;-82
2022/09/02 09:08:36;;;;;;;8.52;4.45;;;;;;;24.54;100.00;99991.69;4992733;28;20236;-83
2022/09/02 09:11:09;;;;;;;11.38;5.07;;;;;;;24.46;100.00;99973.44;4992585;28;20209;-87
2022/09/02 09:13:58;;;;;;;9.40;4.55;;;;;;;24.74;100.00;99996.09;4992316;28;20263;-82
2022/09/02 09:16:40;;;;;;;6.85;4.10;;;;;;;24.83;100.00;99999.22;4992533;28;20312;-82
2022/09/02 09:19:13;;;;;;;7.53;5.10;;;;;;;24.88;100.00;99956.59;4919334;28;20218;-79
2022/09/02 09:21:41;;;;;;;10.18;4.82;;;;;;;24.99;100.00;99978.19;4951397;28;20218;-81
2022/09/02 09:24:17;;;;;;;11.02;5.22;;;;;;;24.85;100.00;99986.78;4919190;29;20207;-79
2022/09/02 09:26:46;;;;;;;8.40;4.93;;;;;;;24.97;100.00;99983.53;4951487;28;20206;-83
2022/09/02 09:29:13;;;;;;;5.50;3.25;;;;;;;24.87;100.00;99982.25;4950898;28;20227;-81
2022/09/02 09:31:41;;;;;;;7.72;4.22;;;;;;;25.11;100.00;100001.50;4950652;29;20718;-83
2022/09/02 09:34:11;;;;;;;11.35;5.20;;;;;;;25.26;100.00;99990.16;4950243;28;20672;-82
2022/09/02 09:36:48;;;;;;;7.22;4.40;;;;;;;25.23;100.00;99976.19;4950476;28;20618;-84
2022/09/02 09:39:19;;;;;;;13.48;4.65;;;;;;;25.28;100.00;100003.38;4950329;28;20337;-83
2022/09/02 09:41:47;;;;;;;10.32;4.22;;;;;;;25.04;100.00;99994.75;4950494;28;20213;-83
2022/09/02 09:44:38;;;;;;;6.50;4.05;;;;;;;24.99;100.00;99983.50;4950092;28;20229;-83
2022/09/02 09:47:07;;;;;;;5.32;4.15;;;;;;;25.05;100.00;99976.09;4950437;29;20210;-77
2022/09/02 09:49:36;;;;;;;11.23;4.70;;;;;;;24.93;100.00;99974.03;4951541;29;20261;-80
2022/09/02 09:52:03;;;;;;;9.07;4.85;;;;;;;25.03;100.00;99963.84;4951169;29;20203;-80
2022/09/02 09:54:30;;;;;;;7.50;4.50;;;;;;;24.98;100.00;99971.16;4951172;29;20199;-78
2022/09/02 09:57:14;;;;;;;5.50;4.55;;;;;;;25.20;100.00;99960.41;4946798;28;20233;-79
2022/09/02 09:59:44;;;;;;;7.63;4.32;;;;;;;25.53;100.00;99964.16;4991993;28;20194;-79
2022/09/02 10:02:21;;;;;;;10.85;5.03;;;;;;;25.74;100.00;99967.56;4992174;28;20213;-77
2022/09/02 10:04:49;;;;;;;6.47;4.05;;;;;;;25.76;100.00;99955.91;4992003;28;20236;-75
2022/09/02 10:07:34;;;;;;;7.03;4.20;;;;;;;25.44;100.00;99920.28;4991695;28;20793;-78
2022/09/02 10:10:14;;;;;;;5.45;3.83;;;;;;;25.23;100.00;99923.97;4991801;28;20205;-77
2022/09/02 10:12:41;;;;;;;5.18;4.20;;;;;;;25.54;100.00;99939.34;4989670;28;20200;-77
2022/09/02 10:15:09;;;;;;;4.60;3.78;;;;;;;25.51;100.00;99947.41;4991865;28;20206;-80
2022/09/02 10:17:47;;;;;;;8.63;3.97;;;;;;;25.49;100.00;99950.13;4991714;28;20713;-79
2022/09/02 10:20:22;;;;;;;9.13;3.92;;;;;;;25.62;100.00;99945.09;4992424;28;20204;-74
2022/09/02 10:23:13;;;;;;;10.30;3.95;;;;;;;25.36;100.00;99919.81;4991723;28;20205;-77
2022/09/02 10:25:56;;;;;;;6.22;3.88;;;;;;;25.50;100.00;99930.63;4991629;28;20583;-76
2022/09/02 10:28:45;;;;;;;17.80;4.38;;;;;;;25.55;100.00;99925.09;4991171;28;20205;-76
2022/09/02 10:31:22;;;;;;;6.63;3.35;;;;;;;25.22;100.00;99914.28;4991315;28;20198;-81
2022/09/02 10:34:02;;;;;;;11.48;4.15;;;;;;;25.48;100.00;99939.56;4989543;28;20209;-80
2022/09/02 10:36:35;;;;;;;13.60;4.10;;;;;;;25.37;100.00;99933.91;4991361;28;20315;-81
2022/09/02 10:39:16;;;;;;;9.05;3.63;;;;;;;25.05;100.00;99925.69;4991512;28;20197;-80
2022/09/02 10:41:45;;;;;;;10.52;3.92;;;;;;;24.97;100.00;99941.09;4989414;28;20212;-78
2022/09/02 10:44:33;;;;;;;8.13;4.40;;;;;;;24.97;100.00;99943.75;4989368;28;20633;-76
2022/09/02 10:47:03;;;;;;;15.82;4.40;;;;;;;24.88;100.00;99960.09;4991522;28;20241;-77
2022/09/02 10:50:00;;;;;;;12.38;4.57;;;;;;;24.79;100.00;99959.63;4991431;28;20197;-78
2022/09/02 10:52:44;;;;;;;13.40;4.97;;;;;;;24.17;100.00;99956.16;4991865;28;20224;-77
2022/09/02 10:55:20;;;;;;;13.80;6.00;;;;;;;23.82;100.00;99958.50;4991383;28;20205;-78
2022/09/02 10:57:52;;;;;;;24.83;6.22;;;;;;;23.36;100.00;99954.16;4991471;28;20229;-77
2022/09/02 11:00:21;;;;;;;15.68;6.88;;;;;;;22.96;100.00;99953.06;4992313;28;20209;-77
2022/09/02 11:02:55;;;;;;;12.52;6.07;;;;;;;22.84;100.00;99947.34;4992768;28;20224;-77
2022/09/02 11:05:24;;;;;;;16.90;5.97;;;;;;;22.69;100.00;99940.84;4992667;28;20209;-78
2022/09/02 11:08:01;;;;;;;8.45;6.57;;;;;;;22.63;100.00;99933.09;4992002;28;20226;-78
2022/09/02 11:10:31;;;;;;;16.50;6.30;;;;;;;22.76;100.00;99942.34;4989196;28;20209;-77
2022/09/02 11:13:04;;;;;;;13.25;6.40;;;;;;;22.79;100.00;99936.97;4991168;28;20668;-78
2022/09/02 11:15:41;;;;;;;21.15;7.72;;;;;;;22.83;100.00;99941.19;4991739;28;20208;-77
2022/09/02 11:18:16;;;;;;;21.15;7.30;;;;;;;22.44;100.00;99937.34;4991891;28;20244;-78
2022/09/02 11:20:49;;;;;;;13.85;6.63;;;;;;;22.09;100.00;99938.56;4991312;28;20205;-70
2022/09/02 11:23:26;;;;;;;14.70;7.55;;;;;;;22.04;100.00;99936.09;4991220;28;20264;-72
2022/09/02 11:25:59;;;;;;;13.48;6.93;;;;;;;22.37;100.00;99933.16;4991388;28;20206;-72
2022/09/02 11:28:36;;;;;;;12.82;6.70;;;;;;;22.39;100.00;99923.44;4973566;28;20209;-76
2022/09/02 11:31:07;;;;;;;16.92;6.00;;;;;;;22.22;100.00;99924.03;4990970;28;20212;-75